createdAt,value
2019-04-29T00:01:21.674Z,91762.91
2019-04-29T00:04:09.945Z,91763.80
2019-04-29T00:06:58.783Z,91764.63
2019-04-29T00:09:47.051Z,91768.80
2019-04-29T00:12:35.916Z,91758.20
2019-04-29T00:16:01.357Z,91754.48
2019-04-29T00:19:10.622Z,91760.08
2019-04-29T00:21:59.118Z,91763.41
2019-04-29T00:24:46.783Z,91750.31
2019-04-29T00:27:34.740Z,91751.19
2019-04-29T00:30:22.575Z,91744.44
2019-04-29T00:33:10.864Z,91747.59
2019-04-29T00:35:58.884Z,91761.21
2019-04-29T00:39:08.186Z,91762.85
2019-04-29T00:42:14.213Z,91750.20
2019-04-29T00:45:02.084Z,91745.02
2019-04-29T00:47:50.024Z,91748.41
2019-04-29T00:50:38.444Z,91750.53
2019-04-29T00:53:26.877Z,91748.33
2019-04-29T00:56:15.100Z,91747.08
2019-04-29T00:59:04.004Z,91749.35
2019-04-29T01:01:53.419Z,91752.89
2019-04-29T01:04:42.347Z,91750.45
2019-04-29T01:07:30.904Z,91738.33
2019-04-29T01:10:19.450Z,91733.13
2019-04-29T01:13:08.005Z,91746.98
2019-04-29T01:15:56.742Z,91744.55
2019-04-29T01:18:45.464Z,91737.61
2019-04-29T01:21:33.882Z,91736.11
2019-04-29T01:24:22.498Z,91740.79
2019-04-29T01:27:18.975Z,91737.20
2019-04-29T01:30:08.360Z,91730.55
2019-04-29T01:32:59.739Z,91722.81
2019-04-29T01:35:49.524Z,91728.48
2019-04-29T01:38:37.305Z,91738.47
2019-04-29T01:41:29.983Z,91734.95
2019-04-29T01:44:18.577Z,91739.87
2019-04-29T01:47:07.365Z,91739.61
2019-04-29T01:49:55.548Z,91745.05
2019-04-29T01:52:44.036Z,91745.09
2019-04-29T01:55:32.094Z,91752.63
2019-04-29T01:58:20.502Z,91744.78
2019-04-29T02:01:08.680Z,91746.10
2019-04-29T02:03:57.226Z,91733.63
2019-04-29T02:06:45.424Z,91733.74
2019-04-29T02:09:41.523Z,91727.32
2019-04-29T02:12:29.616Z,91716.59
2019-04-29T02:15:18.312Z,91711.62
2019-04-29T02:18:06.968Z,91723.10
2019-04-29T02:20:55.136Z,91724.97
2019-04-29T02:23:50.788Z,91722.84
2019-04-29T02:26:38.500Z,91719.62
2019-04-29T02:29:26.998Z,91719.33
2019-04-29T02:32:16.066Z,91715.91
2019-04-29T02:35:04.673Z,91714.67
2019-04-29T02:37:52.575Z,91711.48
2019-04-29T02:40:53.582Z,91716.75
2019-04-29T02:43:43.194Z,91709.02
2019-04-29T02:46:31.699Z,91708.45
2019-04-29T02:49:21.043Z,91714.81
2019-04-29T02:52:09.175Z,91714.48
2019-04-29T02:54:59.732Z,91713.09
2019-04-29T02:58:00.171Z,91704.08
2019-04-29T03:01:10.041Z,91701.70
2019-04-29T03:04:14.258Z,91692.77
2019-04-29T03:07:03.084Z,91701.04
2019-04-29T03:09:51.306Z,91694.38
2019-04-29T03:12:39.905Z,91696.14
2019-04-29T03:15:33.331Z,91699.11
2019-04-29T03:18:23.510Z,91702.78
2019-04-29T03:21:20.378Z,91701.77
2019-04-29T03:24:08.794Z,91691.16
2019-04-29T03:26:56.570Z,91697.94
2019-04-29T03:29:45.208Z,91705.19
2019-04-29T03:32:33.785Z,91705.76
2019-04-29T03:35:21.972Z,91713.93
2019-04-29T03:38:10.419Z,91720.44
2019-04-29T03:40:58.976Z,91718.57
2019-04-29T03:43:47.515Z,91720.98
2019-04-29T03:46:35.829Z,91722.48
2019-04-29T03:49:24.340Z,91724.06
2019-04-29T03:52:12.407Z,91725.27
2019-04-29T03:55:00.005Z,91736.12
2019-04-29T03:57:48.048Z,91740.83
2019-04-29T04:00:36.642Z,91737.75
2019-04-29T04:03:50.033Z,91740.38
2019-04-29T04:06:43.234Z,91738.91
2019-04-29T04:09:33.036Z,91742.18
2019-04-29T04:12:21.043Z,91738.54
2019-04-29T04:15:10.334Z,91729.42
2019-04-29T04:18:12.910Z,91737.36
2019-04-29T04:21:01.589Z,91736.30
2019-04-29T04:23:50.287Z,91734.77
2019-04-29T04:26:38.856Z,91726.36
2019-04-29T04:29:27.000Z,91727.34
2019-04-29T04:32:15.881Z,91727.62
2019-04-29T04:35:04.601Z,91723.20
2019-04-29T04:37:52.680Z,91727.55
2019-04-29T04:40:45.367Z,91727.57
2019-04-29T04:43:36.107Z,91720.70
2019-04-29T04:46:24.330Z,91725.44
2019-04-29T04:49:15.778Z,91732.61
2019-04-29T04:52:02.465Z,91734.14
2019-04-29T04:54:53.131Z,91730.67
2019-04-29T04:57:41.550Z,91724.87
2019-04-29T05:00:31.680Z,91712.89
2019-04-29T05:03:20.064Z,91710.77
2019-04-29T05:06:08.610Z,91727.88
2019-04-29T05:08:56.748Z,91722.24
2019-04-29T05:11:45.287Z,91722.98
2019-04-29T05:14:41.322Z,91729.61
2019-04-29T05:17:29.709Z,91725.66
2019-04-29T05:20:18.278Z,91723.25
2019-04-29T05:23:06.351Z,91719.05
2019-04-29T05:25:56.912Z,91731.78
2019-04-29T05:28:45.187Z,91721.00
2019-04-29T05:31:33.720Z,91723.31
2019-04-29T05:34:23.827Z,91718.73
2019-04-29T05:37:19.235Z,91720.92
2019-04-29T05:40:07.434Z,91727.20
2019-04-29T05:42:55.952Z,91724.10
2019-04-29T05:45:54.036Z,91722.19
2019-04-29T05:48:42.231Z,91719.17
2019-04-29T05:51:36.746Z,91715.53
2019-04-29T05:54:26.943Z,91701.50
2019-04-29T05:57:15.651Z,91698.14
2019-04-29T06:00:04.632Z,91691.88
2019-04-29T06:02:52.998Z,91687.63
2019-04-29T06:05:41.381Z,91703.59
2019-04-29T06:08:29.731Z,91697.11
2019-04-29T06:11:18.849Z,91694.23
2019-04-29T06:14:07.356Z,91691.08
2019-04-29T06:16:57.600Z,91687.58
2019-04-29T06:19:45.204Z,91677.61
2019-04-29T06:22:33.403Z,91681.53
2019-04-29T06:25:21.662Z,91684.93
2019-04-29T06:28:09.842Z,91678.70
2019-04-29T06:30:58.674Z,91676.41
2019-04-29T06:33:47.099Z,91679.78
2019-04-29T06:36:34.921Z,91680.58
2019-04-29T06:39:23.439Z,91685.86
2019-04-29T06:42:15.575Z,91684.50
2019-04-29T06:45:02.193Z,91680.36
2019-04-29T06:47:50.909Z,91682.83
2019-04-29T06:50:40.840Z,91681.77
2019-04-29T06:53:28.759Z,91685.27
2019-04-29T06:56:17.220Z,91675.15
2019-04-29T06:59:07.516Z,91686.73
2019-04-29T07:01:55.268Z,91682.03
2019-04-29T07:04:43.399Z,91677.76
2019-04-29T07:07:34.791Z,91670.34
2019-04-29T07:10:26.961Z,91667.28
2019-04-29T07:13:13.815Z,91657.81
2019-04-29T07:16:02.915Z,91659.67
2019-04-29T07:18:53.552Z,91655.66
2019-04-29T07:21:41.923Z,91656.55
2019-04-29T07:24:29.421Z,91657.92
2019-04-29T07:27:17.012Z,91663.95
2019-04-29T07:30:08.017Z,91661.84
2019-04-29T07:32:56.070Z,91658.64
2019-04-29T07:35:47.995Z,91655.98
2019-04-29T07:38:41.706Z,91658.36
2019-04-29T07:41:25.695Z,91651.34
2019-04-29T07:44:18.256Z,91642.50
2019-04-29T07:47:03.237Z,91645.64
2019-04-29T07:49:53.027Z,91654.32
2019-04-29T07:52:41.115Z,91650.77
2019-04-29T07:55:30.862Z,91650.91
2019-04-29T07:58:18.520Z,91644.15
2019-04-29T08:01:06.875Z,91640.09
2019-04-29T08:03:56.119Z,91630.04
2019-04-29T08:06:44.908Z,91635.66
2019-04-29T08:09:33.526Z,91627.91
2019-04-29T08:12:23.756Z,91627.48
2019-04-29T08:15:12.336Z,91618.00
2019-04-29T08:18:06.612Z,91628.42
2019-04-29T08:20:50.296Z,91623.05
2019-04-29T08:23:42.265Z,91619.90
2019-04-29T08:26:28.543Z,91622.09
2019-04-29T08:29:17.173Z,91612.22
2019-04-29T08:32:05.659Z,91604.39
2019-04-29T08:34:57.329Z,91599.56
2019-04-29T08:37:42.799Z,91602.50
2019-04-29T08:40:34.016Z,91590.78
2019-04-29T08:43:42.089Z,91589.59
2019-04-29T08:46:51.671Z,91587.27
2019-04-29T08:49:38.482Z,91584.09
2019-04-29T08:52:27.021Z,91579.15
2019-04-29T08:55:15.373Z,91585.00
2019-04-29T08:58:06.922Z,91580.84
2019-04-29T09:00:55.836Z,91572.83
2019-04-29T09:03:43.374Z,91567.48
2019-04-29T09:06:32.545Z,91565.00
2019-04-29T09:09:29.306Z,91560.77
2019-04-29T09:12:11.784Z,91562.73
2019-04-29T09:14:59.558Z,91558.15
2019-04-29T09:17:47.367Z,91550.66
2019-04-29T09:20:35.984Z,91549.06
2019-04-29T09:23:26.613Z,91549.48
2019-04-29T09:26:24.545Z,91538.85
2019-04-29T09:29:31.429Z,91535.08
2019-04-29T09:32:19.348Z,91531.05
2019-04-29T09:35:07.911Z,91526.11
2019-04-29T09:37:58.402Z,91536.17
2019-04-29T09:40:54.579Z,91532.05
2019-04-29T09:43:52.130Z,91532.47
2019-04-29T09:46:39.892Z,91531.24
2019-04-29T09:49:27.961Z,91526.74
2019-04-29T09:52:16.615Z,91526.39
2019-04-29T09:55:05.852Z,91526.11
2019-04-29T09:57:54.824Z,91518.13
2019-04-29T10:01:02.077Z,91510.28
2019-04-29T10:04:11.520Z,91515.85
2019-04-29T10:06:59.941Z,91494.14
2019-04-29T10:09:56.801Z,91489.52
2019-04-29T10:12:38.605Z,91493.34
2019-04-29T10:15:35.802Z,91487.52
2019-04-29T10:18:29.756Z,91492.07
2019-04-29T10:21:21.368Z,91480.48
2019-04-29T10:24:07.735Z,91469.39
2019-04-29T10:26:55.780Z,91461.92
2019-04-29T10:29:46.239Z,91474.76
2019-04-29T10:32:37.684Z,91458.40
2019-04-29T10:35:23.170Z,91464.27
2019-04-29T10:38:11.696Z,91467.70
2019-04-29T10:41:12.794Z,91459.69
2019-04-29T10:44:25.842Z,91458.52
2019-04-29T10:47:31.052Z,91453.45
2019-04-29T10:50:26.213Z,91452.61
2019-04-29T10:53:15.655Z,91449.52
2019-04-29T10:56:05.736Z,91444.38
2019-04-29T10:58:53.105Z,91443.33
2019-04-29T11:02:09.397Z,91422.42
2019-04-29T11:04:57.564Z,91426.56
2019-04-29T11:07:45.641Z,91437.02
2019-04-29T11:10:33.956Z,91419.63
2019-04-29T11:13:22.524Z,91424.19
2019-04-29T11:16:12.607Z,91415.33
2019-04-29T11:19:05.168Z,91418.78
2019-04-29T11:21:50.468Z,91419.03
2019-04-29T11:25:06.392Z,91404.47
2019-04-29T11:27:56.747Z,91402.02
2019-04-29T11:30:44.228Z,91392.61
2019-04-29T11:33:51.640Z,91400.53
2019-04-29T11:36:43.955Z,91407.92
2019-04-29T11:39:29.840Z,91395.12
2019-04-29T11:42:18.917Z,91394.00
2019-04-29T11:45:09.582Z,91392.94
2019-04-29T11:47:58.071Z,91388.15
2019-04-29T11:50:54.945Z,91384.69
2019-04-29T11:53:41.426Z,91388.30
2019-04-29T11:56:30.330Z,91386.42
2019-04-29T11:59:37.104Z,91388.10
2019-04-29T12:02:47.848Z,91383.45
2019-04-29T12:05:44.893Z,91382.20
2019-04-29T12:08:33.044Z,91372.78
2019-04-29T12:11:22.717Z,91367.54
2019-04-29T12:14:39.150Z,91364.48
2019-04-29T12:17:31.577Z,91362.87
2019-04-29T12:20:28.314Z,91368.77
2019-04-29T12:23:00.425Z,91353.56
2019-04-29T12:25:30.645Z,91366.02
2019-04-29T12:28:01.977Z,91365.65
2019-04-29T12:30:36.392Z,91356.78
2019-04-29T12:33:37.008Z,91360.92
2019-04-29T12:36:11.137Z,91363.54
2019-04-29T12:39:08.672Z,91351.85
2019-04-29T12:41:51.341Z,91357.36
2019-04-29T12:44:45.741Z,91345.19
2019-04-29T12:47:26.860Z,91357.14
2019-04-29T12:49:53.844Z,91356.67
2019-04-29T12:52:23.670Z,91359.81
2019-04-29T12:54:53.036Z,91358.61
2019-04-29T12:57:23.419Z,91358.71
2019-04-29T12:59:54.652Z,91354.73
2019-04-29T13:02:55.578Z,91351.95
2019-04-29T13:05:58.832Z,91348.53
2019-04-29T13:08:35.522Z,91340.14
2019-04-29T13:11:06.266Z,91336.70
2019-04-29T13:13:35.606Z,91325.47
2019-04-29T13:16:26.978Z,91330.86
2019-04-29T13:19:12.257Z,91329.20
2019-04-29T13:21:39.023Z,91333.98
2019-04-29T13:24:21.799Z,91331.59
2019-04-29T13:26:42.234Z,91336.67
2019-04-29T13:29:08.879Z,91331.73
2019-04-29T13:31:39.200Z,91329.88
2019-04-29T13:34:23.602Z,91335.47
2019-04-29T13:36:41.669Z,91333.88
2019-04-29T13:39:10.995Z,91316.11
2019-04-29T13:41:57.301Z,91319.89
2019-04-29T13:44:12.076Z,91316.81
2019-04-29T13:47:12.411Z,91326.16
2019-04-29T13:49:49.788Z,91327.38
2019-04-29T13:52:22.374Z,91329.24
2019-04-29T13:54:51.965Z,91325.98
2019-04-29T13:57:23.079Z,91322.16
2019-04-29T14:00:10.313Z,91332.89
2019-04-29T14:02:43.406Z,91320.58
2019-04-29T14:05:14.024Z,91321.42
2019-04-29T14:07:43.352Z,91332.30
2019-04-29T14:10:14.928Z,91323.49
2019-04-29T14:12:48.758Z,91325.06
2019-04-29T14:15:15.213Z,91320.92
2019-04-29T14:17:44.617Z,91320.25
2019-04-29T14:20:17.476Z,91323.63
2019-04-29T14:22:49.384Z,91323.58
2019-04-29T14:25:18.701Z,91326.27
2019-04-29T14:27:48.085Z,91321.55
2019-04-29T14:30:20.969Z,91323.56
2019-04-29T14:32:54.078Z,91321.44
2019-04-29T14:35:51.583Z,91334.72
2019-04-29T14:38:24.120Z,91324.94
2019-04-29T14:40:51.974Z,91336.02
2019-04-29T14:43:58.251Z,91334.72
2019-04-29T14:46:55.935Z,91320.92
2019-04-29T14:49:26.535Z,91325.59
2019-04-29T14:51:55.842Z,91328.48
2019-04-29T14:54:25.166Z,91326.95
2019-04-29T14:56:55.033Z,91328.61
2019-04-29T14:59:24.657Z,91328.48
2019-04-29T15:01:59.157Z,91324.18
2019-04-29T15:04:32.588Z,91324.44
2019-04-29T15:07:01.956Z,91318.69
2019-04-29T15:09:31.424Z,91330.56
2019-04-29T15:12:23.963Z,91323.59
2019-04-29T15:15:15.137Z,91329.11
2019-04-29T15:18:15.589Z,91331.31
2019-04-29T15:20:45.959Z,91325.45
2019-04-29T15:23:27.924Z,91330.12
2019-04-29T15:25:46.279Z,91327.08
2019-04-29T15:28:18.718Z,91323.02
2019-04-29T15:30:46.988Z,91326.08
2019-04-29T15:33:16.334Z,91331.43
2019-04-29T15:35:45.671Z,91331.23
2019-04-29T15:38:15.456Z,91328.91
2019-04-29T15:40:44.886Z,91339.08
2019-04-29T15:43:17.845Z,91330.09
2019-04-29T15:45:45.211Z,91331.59
2019-04-29T15:48:15.071Z,91326.05
2019-04-29T15:50:44.454Z,91327.39
2019-04-29T15:53:14.240Z,91326.41
2019-04-29T15:55:43.564Z,91326.03
2019-04-29T15:58:12.918Z,91328.27
2019-04-29T16:00:42.306Z,91326.38
2019-04-29T16:03:12.720Z,91326.05
2019-04-29T16:06:21.036Z,91318.09
2019-04-29T16:08:59.406Z,91320.30
2019-04-29T16:12:14.043Z,91319.61
2019-04-29T16:14:36.852Z,91319.81
2019-04-29T16:17:06.167Z,91327.58
2019-04-29T16:19:35.550Z,91325.30
2019-04-29T16:22:05.096Z,91325.03
2019-04-29T16:24:38.403Z,91331.33
2019-04-29T16:27:08.603Z,91330.86
2019-04-29T16:29:36.361Z,91327.59
2019-04-29T16:32:08.225Z,91330.08
2019-04-29T16:34:45.149Z,91333.59
2019-04-29T16:37:09.099Z,91336.02
2019-04-29T16:39:38.433Z,91336.20
2019-04-29T16:42:25.235Z,91336.70
2019-04-29T16:44:54.888Z,91336.58
2019-04-29T16:47:24.360Z,91342.03
2019-04-29T16:49:57.558Z,91349.05
2019-04-29T16:52:24.672Z,91352.94
2019-04-29T16:54:59.122Z,91351.05
2019-04-29T16:57:25.551Z,91352.35
2019-04-29T16:59:54.972Z,91350.33
2019-04-29T17:02:24.908Z,91356.11
2019-04-29T17:04:54.344Z,91360.14
2019-04-29T17:07:23.673Z,91368.73
2019-04-29T17:10:10.565Z,91370.68
2019-04-29T17:12:46.980Z,91375.67
2019-04-29T17:15:25.242Z,91376.73
2019-04-29T17:17:50.616Z,91376.59
2019-04-29T17:20:20.049Z,91377.91
2019-04-29T17:22:50.419Z,91383.20
2019-04-29T17:25:19.762Z,91385.70
2019-04-29T17:28:11.894Z,91389.59
2019-04-29T17:31:13.451Z,91390.94
2019-04-29T17:34:00.539Z,91395.04
2019-04-29T17:36:30.421Z,91401.21
2019-04-29T17:38:59.754Z,91405.54
2019-04-29T17:41:29.143Z,91402.30
2019-04-29T17:44:27.201Z,91400.76
2019-04-29T17:47:21.951Z,91407.73
2019-04-29T17:50:30.396Z,91417.72
2019-04-29T17:52:57.052Z,91412.22
2019-04-29T17:55:38.744Z,91419.63
2019-04-29T17:58:11.943Z,91421.63
2019-04-29T18:01:02.587Z,91427.00
2019-04-29T18:03:50.159Z,91425.69
2019-04-29T18:06:28.104Z,91431.91
2019-04-29T18:09:29.418Z,91436.52
2019-04-29T18:12:11.634Z,91443.27
2019-04-29T18:14:44.923Z,91447.82
2019-04-29T18:20:44.861Z,91453.14
2019-04-29T18:23:37.682Z,91459.94
2019-04-29T18:26:38.354Z,91453.92
2019-04-29T18:29:20.403Z,91453.61
2019-04-29T18:32:05.214Z,91463.35
2019-04-29T18:34:43.100Z,91464.58
2019-04-29T18:37:24.854Z,91464.05
2019-04-29T18:39:57.770Z,91464.56
2019-04-29T18:42:43.158Z,91467.94
2019-04-29T18:45:09.009Z,91473.43
2019-04-29T18:47:38.980Z,91469.43
2019-04-29T18:50:09.414Z,91471.64
2019-04-29T18:52:39.084Z,91473.99
2019-04-29T18:55:08.707Z,91478.86
2019-04-29T18:57:38.700Z,91472.66
2019-04-29T19:00:11.989Z,91469.20
2019-04-29T19:02:47.398Z,91470.73
2019-04-29T19:05:32.236Z,91468.24
2019-04-29T19:08:11.391Z,91475.89
2019-04-29T19:10:34.410Z,91470.11
2019-04-29T19:13:07.119Z,91468.67
2019-04-29T19:15:35.360Z,91473.78
2019-04-29T19:18:07.609Z,91481.52
2019-04-29T19:20:35.989Z,91475.30
2019-04-29T19:23:09.946Z,91470.43
2019-04-29T19:25:41.417Z,91477.47
2019-04-29T19:28:14.353Z,91468.55
2019-04-29T19:30:40.602Z,91482.03
2019-04-29T19:33:10.313Z,91483.27
2019-04-29T19:35:41.219Z,91478.45
2019-04-29T19:38:12.382Z,91466.18
2019-04-29T19:40:42.742Z,91469.07
2019-04-29T19:43:15.376Z,91465.67
2019-04-29T19:45:44.761Z,91465.95
2019-04-29T19:48:16.130Z,91458.81
2019-04-29T19:50:51.679Z,91459.86
2019-04-29T19:53:18.623Z,91456.69
2019-04-29T19:56:01.266Z,91460.45
2019-04-29T19:58:28.416Z,91458.14
2019-04-29T20:00:52.256Z,91456.45
2019-04-29T20:03:26.623Z,91461.34
2019-04-29T20:06:07.949Z,91460.86
2019-04-29T20:08:50.178Z,91461.86
2019-04-29T20:11:11.578Z,91466.57
2019-04-29T20:13:33.702Z,91466.33
2019-04-29T20:16:42.637Z,91459.11
2019-04-29T20:19:21.345Z,91467.05
2019-04-29T20:21:51.508Z,91467.95
2019-04-29T20:24:23.497Z,91467.33
2019-04-29T20:26:52.283Z,91475.62
2019-04-29T20:29:27.280Z,91473.30
2019-04-29T20:31:56.208Z,91471.21
2019-04-29T20:34:27.956Z,91472.70
2019-04-29T20:36:55.830Z,91477.34
2019-04-29T20:39:26.233Z,91474.69
2019-04-29T20:41:56.147Z,91484.77
2019-04-29T20:44:25.910Z,91483.06
2019-04-29T20:47:15.764Z,91474.42
2019-04-29T20:49:30.926Z,91478.20
2019-04-29T20:52:05.655Z,91478.36
2019-04-29T20:54:35.764Z,91475.83
2019-04-29T20:57:12.030Z,91471.70
2019-04-29T20:59:36.237Z,91476.52
2019-04-29T21:02:12.441Z,91480.64
2019-04-29T21:04:45.858Z,91479.48
2019-04-29T21:07:09.422Z,91480.64
2019-04-29T21:09:39.251Z,91477.63
2019-04-29T21:12:20.621Z,91478.59
2019-04-29T21:14:53.644Z,91485.42
2019-04-29T21:17:29.413Z,91485.99
2019-04-29T21:19:54.782Z,91478.58
2019-04-29T21:22:26.029Z,91474.98
2019-04-29T21:24:55.486Z,91474.06
2019-04-29T21:27:26.007Z,91469.17
2019-04-29T21:29:55.545Z,91476.40
2019-04-29T21:32:25.920Z,91468.31
2019-04-29T21:35:14.484Z,91470.09
2019-04-29T21:37:51.939Z,91468.25
2019-04-29T21:40:29.387Z,91467.31
2019-04-29T21:43:13.354Z,91472.37
2019-04-29T21:45:39.927Z,91481.85
2019-04-29T21:48:07.942Z,91479.15
2019-04-29T21:50:38.127Z,91473.91
2019-04-29T21:53:07.647Z,91476.02
2019-04-29T21:55:36.969Z,91478.23
2019-04-29T21:58:06.296Z,91475.80
2019-04-29T22:00:37.418Z,91476.28
2019-04-29T22:03:07.019Z,91475.41
2019-04-29T22:05:36.860Z,91484.59
2019-04-29T22:08:06.270Z,91481.31
2019-04-29T22:10:36.801Z,91479.72
2019-04-29T22:13:06.360Z,91467.68
2019-04-29T22:15:39.019Z,91478.95
2019-04-29T22:18:13.501Z,91478.71
2019-04-29T22:20:42.247Z,91478.48
2019-04-29T22:23:13.224Z,91479.31
2019-04-29T22:25:41.155Z,91481.05
2019-04-29T22:28:15.885Z,91483.99
2019-04-29T22:30:45.268Z,91490.54
2019-04-29T22:33:15.395Z,91484.20
2019-04-29T22:35:45.261Z,91474.73
2019-04-29T22:38:16.713Z,91473.70
2019-04-29T22:40:46.199Z,91470.98
2019-04-29T22:43:25.254Z,91475.28
2019-04-29T22:45:54.476Z,91471.04
2019-04-29T22:48:25.024Z,91466.08
2019-04-29T22:50:55.626Z,91460.77
2019-04-29T22:53:25.308Z,91461.09
2019-04-29T22:55:57.807Z,91456.37
2019-04-29T22:58:27.236Z,91459.04
2019-04-29T23:00:56.555Z,91451.24
2019-04-29T23:03:25.887Z,91453.25
2019-04-29T23:05:55.929Z,91465.73
2019-04-29T23:08:29.702Z,91452.21
2019-04-29T23:10:59.870Z,91448.38
2019-04-29T23:13:31.145Z,91449.53
2019-04-29T23:16:02.093Z,91461.52
2019-04-29T23:18:41.055Z,91451.48
2019-04-29T23:21:20.739Z,91446.84
2019-04-29T23:23:55.162Z,91441.42
2019-04-29T23:26:24.970Z,91441.95
2019-04-29T23:28:55.461Z,91445.86
2019-04-29T23:31:27.077Z,91439.09
2019-04-29T23:33:56.841Z,91436.78
2019-04-29T23:36:26.200Z,91438.75
2019-04-29T23:38:56.681Z,91436.89
2019-04-29T23:41:32.850Z,91436.18
2019-04-29T23:43:59.870Z,91436.99
2019-04-29T23:46:29.740Z,91447.73
2019-04-29T23:49:03.179Z,91441.80
2019-04-29T23:51:34.276Z,91437.57
2019-04-29T23:54:05.816Z,91448.63
2019-04-29T23:56:38.465Z,91427.62
2019-04-29T23:59:18.487Z,91437.95
